Latest Weather Observations for Ernabella/Pukatja

IDS60801

Issued at 12:35 pm CST Thursday 28 August 2014 (issued every 30 minutes, with the page automatically refreshed every 10 minutes)

About weather observations | Map of weather stations | Latest weather observations for SA | Other Formats
Station Details ID: 016097 Name: PUKATJA Lat: -26.26 Lon: 132.18 Height: 703.2 m
Data from the previous 72 hours. | See also: Recent months at Ernabella/Pukatja
Date/Time
CST
Temp
°C
App
Temp
°C
Dew
Point
Rel
Hum
%
Delta-T
°C
Wind Press
QNH
hPa
Press
MSL
hPa
Rain
since 9 am
mm
Dir
 
Spd
km/h
Gust
km/h
Spd
kts
Gust
kts
28/12:30pm 21.2 14.3 -6.4 15 11.2 ENE 22 35 12 19 1025.3 - 0.0
28/12:00pm 20.6 14.1 -6.1 16 10.9 ENE 20 30 11 16 1025.8 1024.9 0.0
28/11:30am 19.8 13.1 -4.5 19 10.1 ENE 22 30 12 16 1026.2 - 0.0
28/11:00am 19.5 12.5 -3.4 21 9.8 E 24 35 13 19 1026.4 - 0.0
28/10:30am 18.5 11.3 -1.9 25 8.9 ENE 26 35 14 19 1026.7 - 0.0
28/10:00am 17.6 11.2 -1.6 27 8.4 ENE 22 32 12 17 1026.8 - 0.0
28/09:30am 16.4 10.0 -1.7 29 7.7 ENE 22 30 12 16 1026.8 - 0.0
28/09:00am 15.4 10.0 -1.6 31 7.2 ENE 17 26 9 14 1026.9 1026.0 0.0
28/08:30am 13.8 9.0 -2.2 33 6.6 ENE 13 17 7 9 1026.6 - 0.0
28/08:00am 12.2 8.1 -2.8 35 6.0 E 9 11 5 6 1026.3 - 0.0
28/07:30am 9.4 5.2 -3.8 39 5.0 E 9 11 5 6 1026.0 - 0.0
28/07:00am 5.9 2.1 -5.1 45 3.9 ENE 6 6 3 3 1025.7 - 0.0
28/06:30am 7.4 3.4 -5.3 40 4.6 E 7 7 4 4 1025.3 - 0.0
28/06:00am 9.0 4.7 -4.5 38 5.0 E 9 13 5 7 1025.1 1024.1 0.0
28/05:30am 9.6 4.6 -4.7 36 5.4 ESE 13 15 7 8 1024.9 - 0.0
28/05:00am 10.4 5.3 -4.8 34 5.7 ESE 13 15 7 8 1024.8 - 0.0
28/04:30am 10.7 5.2 -5.3 32 6.0 ESE 15 19 8 10 1024.7 - 0.0
28/04:00am 10.8 5.7 -5.2 32 6.0 ESE 13 15 7 8 1024.6 - 0.0
28/03:30am 10.9 5.8 -5.5 31 6.1 ESE 13 17 7 9 1024.7 - 0.0
28/03:00am 10.8 5.7 -5.6 31 6.1 E 13 15 7 8 1024.8 1023.8 0.0
28/02:30am 10.7 5.9 -5.7 31 6.1 ESE 11 13 6 7 1024.9 - 0.0
28/02:00am 10.6 6.2 -5.8 31 6.1 E 9 11 5 6 1025.2 - 0.0
28/01:30am 10.0 5.6 -5.9 32 5.8 E 9 11 5 6 1025.2 - 0.0
28/01:00am 9.8 4.9 -6.9 30 6.0 E 11 13 6 7 1025.4 - 0.0
28/12:30am 11.8 7.0 -6.1 28 6.7 E 11 13 6 7 1025.6 - 0.0
28/12:00am 11.5 6.6 -6.8 27 6.6 E 11 15 6 8 1025.8 1024.9 0.0
 
Date/Time
CST
Temp
°C
App
Temp
°C
Dew
Point
Rel
Hum
%
Delta-T
°C
Wind Press
QNH
hPa
Press
MSL
hPa
Rain
since 9 am
mm
Dir
 
Spd
km/h
Gust
km/h
Spd
kts
Gust
kts
27/11:30pm 11.7 7.6 -7.1 26 6.8 E 7 9 4 5 1025.8 - 0.0
27/11:00pm 10.9 6.3 -7.8 26 6.6 ENE 9 11 5 6 1025.7 - 0.0
27/10:30pm 11.3 6.7 -8.0 25 6.8 ENE 9 11 5 6 1025.6 - 0.0
27/10:00pm 11.4 6.8 -8.4 24 7.0 ENE 9 9 5 5 1025.6 - 0.0
27/09:30pm 12.5 7.5 -8.6 22 7.5 ENE 11 11 6 6 1025.5 - 0.0
27/09:00pm 13.6 8.6 -8.3 21 7.9 NE 11 15 6 8 1025.3 1024.4 0.0
27/08:30pm 14.8 10.1 -9.3 18 8.7 E 9 13 5 7 1025.0 - 0.0
27/08:00pm 18.0 12.6 -9.0 15 10.1 ESE 13 20 7 11 1024.4 - 0.0
27/07:30pm 18.3 12.4 -9.6 14 10.4 ESE 15 19 8 10 1024.0 - 0.0
27/07:00pm 18.8 13.4 -8.3 15 10.4 E 13 17 7 9 1023.7 - 0.0
27/06:30pm 19.2 13.7 -9.8 13 10.9 E 13 17 7 9 1023.4 - 0.0
27/06:00pm 21.2 15.3 -10.4 11 11.9 ESE 15 22 8 12 1023.1 1022.1 0.0
27/05:30pm 22.2 15.9 -9.6 11 12.3 E 17 22 9 12 1022.9 - 0.0
27/05:00pm 22.8 16.6 -9.2 11 12.6 E 17 28 9 15 1022.9 - 0.0
27/04:30pm 23.3 17.5 -8.8 11 12.8 ENE 15 24 8 13 1022.7 - 0.0
27/04:00pm 23.5 17.6 -9.8 10 13.0 ENE 15 24 8 13 1022.7 - 0.0
27/03:30pm 23.0 16.3 -10.2 10 12.8 E 19 30 10 16 1022.6 - 0.0
27/03:00pm 23.4 17.5 -9.9 10 13.0 ESE 15 26 8 14 1022.8 1021.9 0.0
27/02:30pm 24.2 18.3 -9.3 10 13.3 E 15 24 8 13 1022.9 - 0.0
27/02:00pm 23.4 16.8 -8.7 11 12.8 E 19 32 10 17 1023.3 - 0.0
27/01:30pm 23.9 17.4 -8.3 11 13.0 ENE 19 28 10 15 1023.6 - 0.0
27/01:00pm 23.2 17.5 -7.7 12 12.6 SE 15 26 8 14 1024.0 - 0.0
27/12:30pm 22.6 17.3 -7.2 13 12.2 ESE 13 19 7 10 1024.4 - 0.0
27/12:00pm 22.7 16.7 -7.1 13 12.1 E 17 28 9 15 1024.9 1023.9 0.0
27/11:30am 22.0 16.7 -7.6 13 11.9 ENE 13 26 7 14 1025.1 - 0.0
27/11:00am 21.9 15.3 -8.8 12 12.1 NE 19 22 10 12 1025.4 - 0.0
27/10:30am 20.8 15.4 -8.6 13 11.5 N 13 19 7 10 1025.4 - 0.0
27/10:00am 20.0 14.5 -9.2 13 11.2 N 13 19 7 10 1025.4 - 0.0
27/09:30am 18.7 13.1 -11.2 12 10.8 NNE 13 19 7 10 1025.4 - 0.0
27/09:00am 17.9 13.6 -9.1 15 10.0 NE 7 13 4 7 1025.4 1024.5 0.0
27/08:30am 16.2 11.9 -8.8 17 9.2 E 7 9 4 5 1025.2 - 0.0
27/08:00am 11.5 7.5 -5.9 29 6.5 E 7 9 4 5 1024.9 - 0.0
27/07:30am 6.6 2.4 -7.4 36 4.7 E 7 7 4 4 1024.4 - 0.0
27/07:00am 3.9 -0.3 -7.8 42 3.8 E 7 9 4 5 1024.1 - 0.0
27/06:30am 3.4 -0.8 -8.3 42 3.9 E 7 9 4 5 1023.9 - 0.0
27/06:00am 6.5 2.3 -7.8 35 4.8 E 7 9 4 5 1023.7 1022.7 0.0
27/05:30am 4.4 0.2 -7.7 41 3.9 E 7 9 4 5 1023.5 - 0.0
27/05:00am 6.8 2.2 -7.6 35 4.9 E 9 11 5 6 1023.4 - 0.0
27/04:30am 9.2 6.4 -7.0 31 5.7 CALM 0 0 0 0 1023.4 - 0.0
27/04:00am 12.1 8.0 -6.3 27 6.8 E 7 9 4 5 1023.4 - 0.0
27/03:30am 9.9 7.1 -6.8 30 6.0 CALM 0 7 0 4 1023.5 - 0.0
27/03:00am 10.9 8.2 -6.4 29 6.3 CALM 0 0 0 0 1023.7 1022.7 0.0
27/02:30am 9.1 6.4 -6.3 33 5.5 CALM 0 0 0 0 1023.9 - 0.0
27/02:00am 10.2 6.3 -4.9 34 5.7 E 7 9 4 5 1024.0 - 0.0
27/01:30am 8.2 3.3 -7.1 33 5.3 E 11 13 6 7 1024.2 - 0.0
27/01:00am 7.4 3.5 -6.3 37 4.8 E 6 7 3 4 1024.2 - 0.0
27/12:30am 8.1 4.1 -6.0 36 5.0 E 7 9 4 5 1024.2 - 0.0
27/12:00am 10.7 6.4 -5.3 32 6.0 E 9 11 5 6 1024.2 1023.3 0.0
 
Date/Time
CST
Temp
°C
App
Temp
°C
Dew
Point
Rel
Hum
%
Delta-T
°C
Wind Press
QNH
hPa
Press
MSL
hPa
Rain
since 9 am
mm
Dir
 
Spd
km/h
Gust
km/h
Spd
kts
Gust
kts
26/11:30pm 9.7 5.6 -6.2 32 5.8 E 7 9 4 5 1024.3 - 0.0
26/11:00pm 12.1 9.5 -4.9 30 6.5 CALM 0 0 0 0 1024.4 - 0.0
26/10:30pm 12.7 9.7 -4.9 29 6.8 NNE 2 6 1 3 1024.6 - 0.0
26/10:00pm 13.2 9.8 -4.9 28 7.0 NE 4 6 2 3 1024.7 - 0.0
26/09:30pm 13.3 9.4 -4.8 28 7.1 NNE 7 9 4 5 1024.7 - 0.0
26/09:00pm 13.6 9.2 -5.5 26 7.3 E 9 9 5 5 1024.7 1023.7 0.0
26/08:30pm 14.8 10.9 -5.0 25 7.8 E 7 9 4 5 1024.4 - 0.0
26/08:00pm 15.8 11.5 -4.7 24 8.2 ENE 9 11 5 6 1024.1 - 0.0
26/07:30pm 16.8 12.1 -5.0 22 8.8 E 11 13 6 7 1023.8 - 0.0
26/07:00pm 18.6 14.2 -5.4 19 9.8 ESE 9 13 5 7 1023.5 - 0.0
26/06:30pm 20.1 14.9 -5.7 17 10.6 ESE 13 15 7 8 1023.4 - 0.0
26/06:00pm 22.1 18.1 -5.7 15 11.6 S 7 13 4 7 1023.2 1022.2 0.0
26/05:30pm 22.8 18.0 -6.1 14 12.1 SSE 11 17 6 9 1022.9 - 0.0
26/05:00pm 23.3 18.8 -6.6 13 12.4 NE 9 15 5 8 1022.8 - 0.0
26/04:30pm 23.5 18.4 -5.5 14 12.3 E 13 19 7 10 1022.7 - 0.0
26/04:00pm 24.2 20.7 -5.9 13 12.8 SSE 4 9 2 5 1022.6 - 0.0
26/03:30pm 23.7 18.6 -5.3 14 12.4 ENE 13 19 7 10 1022.9 - 0.0
26/03:00pm 23.7 19.0 -5.3 14 12.3 ESE 11 19 6 10 1023.2 1022.2 0.0
26/02:30pm 23.0 18.7 -5.0 15 12.0 SSE 9 13 5 7 1023.6 - 0.0
26/02:00pm 22.6 18.3 -5.3 15 11.8 NE 9 15 5 8 1024.0 - 0.0
26/01:30pm 22.6 18.0 -4.5 16 11.6 N 11 17 6 9 1024.3 - 0.0
26/01:00pm 22.2 18.0 -4.0 17 11.3 NNE 9 19 5 10 1025.0 - 0.0
26/12:30pm 21.7 17.6 -2.9 19 10.8 N 9 13 5 7 1025.5 - 0.0
26/12:00pm 21.5 17.2 -1.7 21 10.4 NNE 11 20 6 11 1025.8 1024.9 0.0
26/11:30am 21.4 16.8 -1.2 22 10.2 NNE 13 20 7 11 1026.3 - 0.0
26/11:00am 20.0 15.3 -1.7 23 9.6 NNE 13 19 7 10 1026.8 - 0.0
26/10:30am 19.2 14.3 -0.7 26 8.9 N 15 22 8 12 1027.2 - 0.0
26/10:00am 18.7 14.2 -0.2 28 8.5 NE 13 20 7 11 1027.3 - 0.0
26/09:30am 18.2 13.0 -0.1 29 8.3 NE 17 22 9 12 1027.3 - 0.0
26/09:00am 16.5 11.3 0.2 33 7.3 NE 17 20 9 11 1027.4 1026.5 0.0
26/08:30am 15.4 11.3 -0.4 34 6.9 NE 11 19 6 10 1027.3 - 0.0
26/08:00am 10.8 7.3 -2.6 39 5.3 E 6 7 3 4 1027.0 - 0.0
26/07:58am 10.4 6.9 -2.6 40 5.2 E 6 7 3 4 1027.0 - 0.0
26/07:30am 5.2 2.7 -4.4 50 3.4 CALM 0 0 0 0 1026.7 - 0.0
26/07:00am 3.7 1.1 -5.0 53 3.0 CALM 0 0 0 0 1026.5 - 0.0
26/06:30am 4.4 1.8 -4.8 51 3.2 CALM 0 0 0 0 1026.0 - 0.0
26/06:00am 4.9 2.3 -4.6 50 3.3 CALM 0 0 0 0 1025.8 1024.9 0.0
26/05:30am 4.9 2.3 -4.9 49 3.4 CALM 0 0 0 0 1025.7 - 0.0
26/05:00am 5.5 2.9 -4.6 48 3.6 CALM 0 0 0 0 1025.6 - 0.0
26/04:30am 7.8 4.2 -4.0 43 4.4 W 6 7 3 4 1025.6 - 0.0
26/04:00am 8.0 4.2 -3.5 44 4.4 W 7 9 4 5 1025.3 - 0.0
26/03:30am 7.7 5.3 -3.5 45 4.2 CALM 0 0 0 0 1025.3 - 0.0
26/03:00am 9.4 6.9 -3.8 39 5.0 CALM 0 0 0 0 1025.5 1024.6 0.0
26/02:30am 8.5 6.0 -3.7 42 4.6 CALM 0 0 0 0 1025.7 - 0.0
26/02:00am 8.7 5.4 -4.5 39 4.9 E 4 6 2 3 1026.2 - 0.0
26/01:30am 10.1 6.5 -3.9 37 5.4 E 6 7 3 4 1026.4 - 0.0
26/01:00am 9.8 6.2 -3.5 39 5.1 E 6 6 3 3 1026.6 - 0.0
26/12:30am 12.8 9.1 -3.0 33 6.4 E 7 9 4 5 1026.9 - 0.0
26/12:00am 12.5 8.8 -2.9 34 6.2 E 7 9 4 5 1027.0 1026.1 0.0
 
Date/Time
CST
Temp
°C
App
Temp
°C
Dew
Point
Rel
Hum
%
Delta-T
°C
Wind Press
QNH
hPa
Press
MSL
hPa
Rain
since 9 am
mm
Dir
 
Spd
km/h
Gust
km/h
Spd
kts
Gust
kts
25/11:30pm 9.5 4.9 -4.4 37 5.2 NNE 11 15 6 8 1027.0 - 0.0
25/11:00pm 12.9 9.4 -3.0 33 6.4 E 6 9 3 5 1027.1 - 0.0
25/10:30pm 12.7 8.9 -3.5 32 6.5 NNE 7 11 4 6 1027.3 - 0.0
25/10:00pm 14.2 10.5 -3.1 30 7.1 E 7 11 4 6 1027.3 - 0.0
25/09:30pm 15.2 11.5 -2.7 29 7.4 ENE 7 13 4 7 1027.3 - 0.0
25/09:00pm 14.4 10.3 -3.4 29 7.2 E 9 13 5 7 1027.3 1026.4 0.0
25/08:30pm 17.4 13.0 -2.8 25 8.6 ESE 11 17 6 9 1027.1 - 0.0
25/08:00pm 18.9 13.4 -2.1 24 9.2 ESE 17 22 9 12 1026.9 - 0.0
25/07:30pm 17.7 13.2 -3.1 24 8.8 ESE 11 15 6 8 1026.7 - 0.0
25/07:00pm 19.1 14.2 -3.1 22 9.5 ESE 13 19 7 10 1026.5 - 0.0
25/06:30pm 19.9 14.7 -3.0 21 9.9 E 15 20 8 11 1026.2 - 0.0
25/06:00pm 21.3 15.7 -3.2 19 10.6 SE 17 24 9 13 1025.9 1025.0 0.0
25/05:30pm 22.1 16.0 -2.6 19 11.0 SE 20 26 11 14 1025.7 - 0.0
25/05:00pm 22.9 17.0 -2.6 18 11.4 E 19 26 10 14 1025.5 - 0.0
25/04:30pm 22.8 17.5 -3.5 17 11.5 ESE 15 22 8 12 1025.5 - 0.0
25/04:00pm 24.3 19.4 -3.1 16 12.3 SE 13 26 7 14 1025.3 - 0.0
25/03:30pm 23.3 17.8 -2.3 18 11.5 ENE 17 28 9 15 1025.3 - 0.0
25/03:00pm 23.7 17.5 -2.8 17 11.8 SSE 20 39 11 21 1025.6 1024.7 0.0
25/02:30pm 23.6 19.2 -2.8 17 11.8 SE 11 22 6 12 1025.9 - 0.0
25/02:00pm 23.8 17.8 -2.7 17 11.9 ESE 19 33 10 18 1026.3 - 0.0
25/01:30pm 23.3 17.3 -3.1 17 11.7 ESE 19 35 10 19 1026.9 - 0.0
25/01:00pm 22.8 16.4 -2.0 19 11.2 E 22 37 12 20 1027.4 - 0.0

Other Formats:

Comma delimited format used in spreadsheet applications
http://www.bom.gov.au/fwo/IDS60801/IDS60801.94474.axf

JavaScript Object Notation format (JSON) in row-major order
http://www.bom.gov.au/fwo/IDS60801/IDS60801.94474.json